sensor_id;sensor_type;location;lat;lon;timestamp;P1;durP1;ratioP1;P2;durP2;ratioP2
75912;SDS011;64592;52.168;21.040;2023-04-24T00:04:06;9.95;;;7.00;;
75912;SDS011;64592;52.168;21.040;2023-04-24T00:09:12;9.80;;;6.75;;
75912;SDS011;64592;52.168;21.040;2023-04-24T00:14:13;8.27;;;5.95;;
75912;SDS011;64592;52.168;21.040;2023-04-24T00:19:15;8.25;;;5.97;;
75912;SDS011;64592;52.168;21.040;2023-04-24T00:24:18;12.23;;;6.65;;
75912;SDS011;64592;52.168;21.040;2023-04-24T00:29:20;14.43;;;7.43;;
75912;SDS011;64592;52.168;21.040;2023-04-24T00:34:21;9.25;;;6.88;;
75912;SDS011;64592;52.168;21.040;2023-04-24T00:39:24;11.40;;;7.07;;
75912;SDS011;64592;52.168;21.040;2023-04-24T00:44:26;15.57;;;7.57;;
75912;SDS011;64592;52.168;21.040;2023-04-24T00:49:28;9.23;;;7.22;;
75912;SDS011;64592;52.168;21.040;2023-04-24T00:54:31;11.10;;;6.93;;
75912;SDS011;64592;52.168;21.040;2023-04-24T00:59:32;13.27;;;6.88;;
75912;SDS011;64592;52.168;21.040;2023-04-24T01:04:35;11.32;;;7.15;;
75912;SDS011;64592;52.168;21.040;2023-04-24T01:09:39;10.52;;;7.32;;
75912;SDS011;64592;52.168;21.040;2023-04-24T01:14:42;15.40;;;7.50;;
75912;SDS011;64592;52.168;21.040;2023-04-24T01:19:44;15.13;;;7.32;;
75912;SDS011;64592;52.168;21.040;2023-04-24T01:24:47;10.68;;;6.80;;
75912;SDS011;64592;52.168;21.040;2023-04-24T01:29:49;11.05;;;6.40;;
75912;SDS011;64592;52.168;21.040;2023-04-24T01:34:52;11.15;;;7.28;;
75912;SDS011;64592;52.168;21.040;2023-04-24T01:39:55;15.32;;;7.15;;
75912;SDS011;64592;52.168;21.040;2023-04-24T01:44:57;13.65;;;8.00;;
75912;SDS011;64592;52.168;21.040;2023-04-24T01:49:59;13.73;;;7.80;;
75912;SDS011;64592;52.168;21.040;2023-04-24T01:55:02;13.45;;;7.28;;
75912;SDS011;64592;52.168;21.040;2023-04-24T02:00:04;12.88;;;7.20;;
75912;SDS011;64592;52.168;21.040;2023-04-24T02:05:08;10.85;;;7.93;;
75912;SDS011;64592;52.168;21.040;2023-04-24T02:10:12;11.23;;;6.55;;
75912;SDS011;64592;52.168;21.040;2023-04-24T02:15:14;11.18;;;7.10;;
75912;SDS011;64592;52.168;21.040;2023-04-24T02:20:16;12.35;;;7.40;;
75912;SDS011;64592;52.168;21.040;2023-04-24T02:25:20;9.32;;;7.38;;
75912;SDS011;64592;52.168;21.040;2023-04-24T02:30:22;12.23;;;8.05;;
75912;SDS011;64592;52.168;21.040;2023-04-24T02:35:24;11.70;;;7.65;;
75912;SDS011;64592;52.168;21.040;2023-04-24T02:40:27;11.60;;;7.90;;
75912;SDS011;64592;52.168;21.040;2023-04-24T02:45:28;13.07;;;8.10;;
75912;SDS011;64592;52.168;21.040;2023-04-24T02:50:30;14.07;;;7.80;;
75912;SDS011;64592;52.168;21.040;2023-04-24T02:55:34;14.95;;;7.93;;
75912;SDS011;64592;52.168;21.040;2023-04-24T03:00:36;13.10;;;7.93;;
75912;SDS011;64592;52.168;21.040;2023-04-24T03:05:39;11.43;;;7.70;;
75912;SDS011;64592;52.168;21.040;2023-04-24T03:10:42;12.73;;;8.27;;
75912;SDS011;64592;52.168;21.040;2023-04-24T03:15:44;11.57;;;7.35;;
75912;SDS011;64592;52.168;21.040;2023-04-24T03:20:46;13.27;;;8.52;;
75912;SDS011;64592;52.168;21.040;2023-04-24T03:25:50;11.50;;;7.95;;
75912;SDS011;64592;52.168;21.040;2023-04-24T03:30:51;17.20;;;9.85;;
75912;SDS011;64592;52.168;21.040;2023-04-24T03:35:53;13.38;;;8.20;;
75912;SDS011;64592;52.168;21.040;2023-04-24T03:40:56;13.25;;;8.65;;
75912;SDS011;64592;52.168;21.040;2023-04-24T03:45:58;10.85;;;7.60;;
75912;SDS011;64592;52.168;21.040;2023-04-24T03:51:00;13.68;;;8.32;;
75912;SDS011;64592;52.168;21.040;2023-04-24T03:56:03;14.23;;;8.23;;
75912;SDS011;64592;52.168;21.040;2023-04-24T04:01:04;13.43;;;9.10;;
75912;SDS011;64592;52.168;21.040;2023-04-24T04:06:06;12.73;;;8.38;;
75912;SDS011;64592;52.168;21.040;2023-04-24T04:11:09;10.82;;;7.78;;
75912;SDS011;64592;52.168;21.040;2023-04-24T04:16:11;13.15;;;7.65;;
75912;SDS011;64592;52.168;21.040;2023-04-24T04:21:12;14.90;;;8.23;;
75912;SDS011;64592;52.168;21.040;2023-04-24T04:26:15;11.15;;;7.38;;
75912;SDS011;64592;52.168;21.040;2023-04-24T04:31:19;10.77;;;7.28;;
75912;SDS011;64592;52.168;21.040;2023-04-24T04:36:21;15.73;;;9.98;;
75912;SDS011;64592;52.168;21.040;2023-04-24T04:41:25;10.63;;;7.65;;
75912;SDS011;64592;52.168;21.040;2023-04-24T04:46:27;13.38;;;8.13;;
75912;SDS011;64592;52.168;21.040;2023-04-24T04:51:32;11.75;;;7.60;;
75912;SDS011;64592;52.168;21.040;2023-04-24T04:56:35;15.63;;;7.88;;
75912;SDS011;64592;52.168;21.040;2023-04-24T05:01:36;11.23;;;7.80;;
75912;SDS011;64592;52.168;21.040;2023-04-24T05:06:38;12.15;;;9.55;;
75912;SDS011;64592;52.168;21.040;2023-04-24T05:11:41;14.65;;;7.22;;
75912;SDS011;64592;52.168;21.040;2023-04-24T05:16:43;14.52;;;8.13;;
75912;SDS011;64592;52.168;21.040;2023-04-24T05:21:45;11.00;;;6.70;;
75912;SDS011;64592;52.168;21.040;2023-04-24T05:26:48;11.48;;;7.32;;
75912;SDS011;64592;52.168;21.040;2023-04-24T05:31:49;12.52;;;7.82;;
75912;SDS011;64592;52.168;21.040;2023-04-24T05:36:51;13.05;;;8.48;;
75912;SDS011;64592;52.168;21.040;2023-04-24T05:41:54;11.88;;;7.65;;
75912;SDS011;64592;52.168;21.040;2023-04-24T05:46:57;13.48;;;8.77;;
75912;SDS011;64592;52.168;21.040;2023-04-24T05:51:59;13.68;;;9.25;;
75912;SDS011;64592;52.168;21.040;2023-04-24T05:57:02;13.80;;;9.50;;
75912;SDS011;64592;52.168;21.040;2023-04-24T06:02:07;14.07;;;9.65;;
75912;SDS011;64592;52.168;21.040;2023-04-24T06:07:09;10.98;;;7.95;;
75912;SDS011;64592;52.168;21.040;2023-04-24T06:12:13;13.95;;;7.82;;
75912;SDS011;64592;52.168;21.040;2023-04-24T06:17:15;13.35;;;8.75;;
75912;SDS011;64592;52.168;21.040;2023-04-24T06:22:16;12.40;;;7.85;;
75912;SDS011;64592;52.168;21.040;2023-04-24T06:27:19;13.52;;;8.63;;
75912;SDS011;64592;52.168;21.040;2023-04-24T06:32:21;11.38;;;8.00;;
75912;SDS011;64592;52.168;21.040;2023-04-24T06:37:23;11.07;;;8.05;;
75912;SDS011;64592;52.168;21.040;2023-04-24T06:42:27;13.80;;;9.20;;
75912;SDS011;64592;52.168;21.040;2023-04-24T06:47:29;13.55;;;8.48;;
75912;SDS011;64592;52.168;21.040;2023-04-24T06:52:30;15.55;;;7.25;;
75912;SDS011;64592;52.168;21.040;2023-04-24T06:57:34;10.27;;;7.75;;
75912;SDS011;64592;52.168;21.040;2023-04-24T07:02:35;12.13;;;8.20;;
75912;SDS011;64592;52.168;21.040;2023-04-24T07:07:37;11.45;;;7.95;;
75912;SDS011;64592;52.168;21.040;2023-04-24T07:12:41;13.40;;;8.05;;
75912;SDS011;64592;52.168;21.040;2023-04-24T07:17:43;10.18;;;8.20;;
75912;SDS011;64592;52.168;21.040;2023-04-24T07:22:45;12.15;;;7.82;;
75912;SDS011;64592;52.168;21.040;2023-04-24T07:27:49;11.40;;;7.75;;
75912;SDS011;64592;52.168;21.040;2023-04-24T07:32:51;11.23;;;7.95;;
75912;SDS011;64592;52.168;21.040;2023-04-24T07:37:52;10.45;;;7.28;;
75912;SDS011;64592;52.168;21.040;2023-04-24T07:42:56;10.20;;;7.28;;
75912;SDS011;64592;52.168;21.040;2023-04-24T07:47:57;11.43;;;7.07;;
75912;SDS011;64592;52.168;21.040;2023-04-24T07:52:59;13.07;;;7.22;;
75912;SDS011;64592;52.168;21.040;2023-04-24T07:58:02;10.35;;;6.80;;
75912;SDS011;64592;52.168;21.040;2023-04-24T08:03:05;13.00;;;7.13;;
75912;SDS011;64592;52.168;21.040;2023-04-24T08:08:06;12.02;;;7.30;;
75912;SDS011;64592;52.168;21.040;2023-04-24T08:13:09;10.93;;;7.40;;
75912;SDS011;64592;52.168;21.040;2023-04-24T08:18:11;10.35;;;8.15;;
75912;SDS011;64592;52.168;21.040;2023-04-24T08:23:13;11.73;;;8.23;;
75912;SDS011;64592;52.168;21.040;2023-04-24T08:28:16;11.95;;;8.60;;
75912;SDS011;64592;52.168;21.040;2023-04-24T08:33:20;11.57;;;7.90;;
75912;SDS011;64592;52.168;21.040;2023-04-24T08:38:22;10.70;;;6.97;;
75912;SDS011;64592;52.168;21.040;2023-04-24T08:43:25;12.95;;;7.75;;
75912;SDS011;64592;52.168;21.040;2023-04-24T08:48:26;10.35;;;7.85;;
75912;SDS011;64592;52.168;21.040;2023-04-24T08:53:30;10.13;;;7.10;;
75912;SDS011;64592;52.168;21.040;2023-04-24T08:58:35;10.35;;;7.20;;
75912;SDS011;64592;52.168;21.040;2023-04-24T09:03:37;9.35;;;7.28;;
75912;SDS011;64592;52.168;21.040;2023-04-24T09:08:39;10.95;;;6.50;;
75912;SDS011;64592;52.168;21.040;2023-04-24T09:13:45;9.55;;;6.53;;
75912;SDS011;64592;52.168;21.040;2023-04-24T09:18:46;9.15;;;6.05;;
75912;SDS011;64592;52.168;21.040;2023-04-24T09:23:57;10.77;;;5.70;;
75912;SDS011;64592;52.168;21.040;2023-04-24T09:29:01;9.45;;;6.47;;
75912;SDS011;64592;52.168;21.040;2023-04-24T09:34:05;11.30;;;5.75;;
75912;SDS011;64592;52.168;21.040;2023-04-24T09:39:08;9.23;;;7.03;;
75912;SDS011;64592;52.168;21.040;2023-04-24T09:44:13;19.75;;;7.55;;
75912;SDS011;64592;52.168;21.040;2023-04-24T09:49:21;9.63;;;7.00;;
75912;SDS011;64592;52.168;21.040;2023-04-24T09:54:23;9.05;;;7.35;;
75912;SDS011;64592;52.168;21.040;2023-04-24T09:59:27;10.02;;;6.72;;
75912;SDS011;64592;52.168;21.040;2023-04-24T10:04:29;9.10;;;6.82;;
75912;SDS011;64592;52.168;21.040;2023-04-24T10:09:30;11.00;;;6.32;;
75912;SDS011;64592;52.168;21.040;2023-04-24T10:14:34;9.30;;;5.88;;
75912;SDS011;64592;52.168;21.040;2023-04-24T10:19:36;11.00;;;6.68;;
75912;SDS011;64592;52.168;21.040;2023-04-24T10:24:39;8.73;;;6.15;;
75912;SDS011;64592;52.168;21.040;2023-04-24T10:29:43;9.45;;;6.20;;
75912;SDS011;64592;52.168;21.040;2023-04-24T10:34:44;10.00;;;6.53;;
75912;SDS011;64592;52.168;21.040;2023-04-24T10:39:47;7.82;;;6.93;;
75912;SDS011;64592;52.168;21.040;2023-04-24T10:44:52;9.02;;;5.72;;
75912;SDS011;64592;52.168;21.040;2023-04-24T10:49:55;10.30;;;5.40;;
75912;SDS011;64592;52.168;21.040;2023-04-24T11:00:12;9.48;;;6.60;;
75912;SDS011;64592;52.168;21.040;2023-04-24T11:05:16;9.88;;;6.38;;
75912;SDS011;64592;52.168;21.040;2023-04-24T11:10:24;8.85;;;5.45;;
75912;SDS011;64592;52.168;21.040;2023-04-24T11:15:28;9.65;;;5.05;;
75912;SDS011;64592;52.168;21.040;2023-04-24T11:20:30;7.07;;;5.47;;
75912;SDS011;64592;52.168;21.040;2023-04-24T11:25:32;12.23;;;6.10;;
75912;SDS011;64592;52.168;21.040;2023-04-24T11:30:35;8.68;;;5.13;;
75912;SDS011;64592;52.168;21.040;2023-04-24T11:35:41;6.97;;;5.38;;
75912;SDS011;64592;52.168;21.040;2023-04-24T11:40:43;7.55;;;5.75;;
75912;SDS011;64592;52.168;21.040;2023-04-24T11:45:48;7.18;;;5.20;;
75912;SDS011;64592;52.168;21.040;2023-04-24T11:50:50;6.45;;;5.18;;
75912;SDS011;64592;52.168;21.040;2023-04-24T11:55:52;7.80;;;5.20;;
75912;SDS011;64592;52.168;21.040;2023-04-24T12:00:57;10.02;;;5.63;;
75912;SDS011;64592;52.168;21.040;2023-04-24T12:06:05;6.55;;;5.10;;
75912;SDS011;64592;52.168;21.040;2023-04-24T12:11:08;6.85;;;5.80;;
75912;SDS011;64592;52.168;21.040;2023-04-24T12:16:11;6.30;;;5.20;;
75912;SDS011;64592;52.168;21.040;2023-04-24T12:21:19;10.05;;;5.47;;
75912;SDS011;64592;52.168;21.040;2023-04-24T12:26:22;8.30;;;6.63;;
75912;SDS011;64592;52.168;21.040;2023-04-24T12:31:25;11.50;;;6.20;;
75912;SDS011;64592;52.168;21.040;2023-04-24T12:36:30;8.10;;;5.45;;
75912;SDS011;64592;52.168;21.040;2023-04-24T12:41:31;20.00;;;5.65;;
75912;SDS011;64592;52.168;21.040;2023-04-24T12:46:34;12.95;;;4.63;;
75912;SDS011;64592;52.168;21.040;2023-04-24T12:51:36;9.70;;;4.53;;
75912;SDS011;64592;52.168;21.040;2023-04-24T12:56:38;10.20;;;4.18;;
75912;SDS011;64592;52.168;21.040;2023-04-24T13:01:41;7.10;;;3.60;;
75912;SDS011;64592;52.168;21.040;2023-04-24T13:06:42;14.02;;;4.25;;
75912;SDS011;64592;52.168;21.040;2023-04-24T13:11:44;7.10;;;4.65;;
75912;SDS011;64592;52.168;21.040;2023-04-24T13:16:47;6.07;;;3.58;;
75912;SDS011;64592;52.168;21.040;2023-04-24T13:21:49;7.82;;;3.47;;
75912;SDS011;64592;52.168;21.040;2023-04-24T13:26:51;8.43;;;3.92;;
75912;SDS011;64592;52.168;21.040;2023-04-24T13:31:54;4.65;;;3.40;;
75912;SDS011;64592;52.168;21.040;2023-04-24T13:36:56;5.30;;;4.20;;
75912;SDS011;64592;52.168;21.040;2023-04-24T13:41:59;4.40;;;3.33;;
75912;SDS011;64592;52.168;21.040;2023-04-24T13:47:02;8.93;;;3.70;;
75912;SDS011;64592;52.168;21.040;2023-04-24T13:52:03;5.55;;;3.13;;
75912;SDS011;64592;52.168;21.040;2023-04-24T13:57:05;3.90;;;3.15;;
75912;SDS011;64592;52.168;21.040;2023-04-24T14:02:08;4.50;;;3.63;;
75912;SDS011;64592;52.168;21.040;2023-04-24T14:07:10;4.05;;;3.60;;
75912;SDS011;64592;52.168;21.040;2023-04-24T14:12:11;5.15;;;3.58;;
75912;SDS011;64592;52.168;21.040;2023-04-24T14:17:15;6.25;;;3.80;;
75912;SDS011;64592;52.168;21.040;2023-04-24T14:22:16;5.65;;;3.58;;
75912;SDS011;64592;52.168;21.040;2023-04-24T14:27:18;4.40;;;3.55;;
75912;SDS011;64592;52.168;21.040;2023-04-24T14:32:21;6.78;;;3.95;;
75912;SDS011;64592;52.168;21.040;2023-04-24T14:37:23;6.53;;;3.95;;
75912;SDS011;64592;52.168;21.040;2023-04-24T14:42:25;4.53;;;3.83;;
75912;SDS011;64592;52.168;21.040;2023-04-24T14:47:30;6.88;;;3.88;;
75912;SDS011;64592;52.168;21.040;2023-04-24T14:52:31;5.90;;;3.65;;
75912;SDS011;64592;52.168;21.040;2023-04-24T14:57:33;5.40;;;3.67;;
75912;SDS011;64592;52.168;21.040;2023-04-24T15:02:37;5.28;;;4.07;;
75912;SDS011;64592;52.168;21.040;2023-04-24T15:07:41;5.35;;;4.45;;
75912;SDS011;64592;52.168;21.040;2023-04-24T15:12:43;6.38;;;4.13;;
75912;SDS011;64592;52.168;21.040;2023-04-24T15:17:47;6.80;;;4.32;;
75912;SDS011;64592;52.168;21.040;2023-04-24T15:22:48;9.10;;;4.55;;
75912;SDS011;64592;52.168;21.040;2023-04-24T15:27:50;6.70;;;4.00;;
75912;SDS011;64592;52.168;21.040;2023-04-24T15:32:53;9.93;;;4.07;;
75912;SDS011;64592;52.168;21.040;2023-04-24T15:37:55;6.05;;;4.10;;
75912;SDS011;64592;52.168;21.040;2023-04-24T15:42:56;6.68;;;4.00;;
75912;SDS011;64592;52.168;21.040;2023-04-24T15:48:00;5.25;;;4.00;;
75912;SDS011;64592;52.168;21.040;2023-04-24T15:53:01;7.40;;;4.28;;
75912;SDS011;64592;52.168;21.040;2023-04-24T15:58:03;7.32;;;3.95;;
75912;SDS011;64592;52.168;21.040;2023-04-24T16:03:06;5.78;;;4.07;;
75912;SDS011;64592;52.168;21.040;2023-04-24T16:08:08;4.95;;;3.97;;
75912;SDS011;64592;52.168;21.040;2023-04-24T16:13:10;5.65;;;4.60;;
75912;SDS011;64592;52.168;21.040;2023-04-24T16:18:13;6.90;;;4.47;;
75912;SDS011;64592;52.168;21.040;2023-04-24T16:23:16;5.20;;;4.03;;
75912;SDS011;64592;52.168;21.040;2023-04-24T16:28:18;7.57;;;4.07;;
75912;SDS011;64592;52.168;21.040;2023-04-24T16:33:21;13.63;;;4.72;;
75912;SDS011;64592;52.168;21.040;2023-04-24T16:43:26;7.93;;;3.90;;
75912;SDS011;64592;52.168;21.040;2023-04-24T16:48:31;4.57;;;4.03;;
75912;SDS011;64592;52.168;21.040;2023-04-24T16:53:33;8.27;;;4.45;;
75912;SDS011;64592;52.168;21.040;2023-04-24T16:58:35;6.28;;;4.25;;
75912;SDS011;64592;52.168;21.040;2023-04-24T17:03:38;5.55;;;3.92;;
75912;SDS011;64592;52.168;21.040;2023-04-24T17:08:40;6.90;;;4.03;;
75912;SDS011;64592;52.168;21.040;2023-04-24T17:13:41;6.90;;;4.50;;
75912;SDS011;64592;52.168;21.040;2023-04-24T17:18:44;5.45;;;3.90;;
75912;SDS011;64592;52.168;21.040;2023-04-24T17:23:46;5.28;;;3.90;;
75912;SDS011;64592;52.168;21.040;2023-04-24T17:28:48;5.63;;;4.10;;
75912;SDS011;64592;52.168;21.040;2023-04-24T17:33:54;5.90;;;4.28;;
75912;SDS011;64592;52.168;21.040;2023-04-24T17:38:56;8.68;;;4.57;;
75912;SDS011;64592;52.168;21.040;2023-04-24T17:43:58;7.28;;;4.43;;
75912;SDS011;64592;52.168;21.040;2023-04-24T17:49:01;8.70;;;4.68;;
75912;SDS011;64592;52.168;21.040;2023-04-24T17:54:03;8.20;;;4.80;;
75912;SDS011;64592;52.168;21.040;2023-04-24T17:59:05;9.98;;;4.70;;
75912;SDS011;64592;52.168;21.040;2023-04-24T18:04:08;8.88;;;4.78;;
75912;SDS011;64592;52.168;21.040;2023-04-24T18:09:10;9.25;;;5.10;;
75912;SDS011;64592;52.168;21.040;2023-04-24T18:14:14;6.22;;;4.97;;
75912;SDS011;64592;52.168;21.040;2023-04-24T18:19:17;7.22;;;4.85;;
75912;SDS011;64592;52.168;21.040;2023-04-24T18:24:19;6.20;;;4.22;;
75912;SDS011;64592;52.168;21.040;2023-04-24T18:29:21;9.50;;;4.85;;
75912;SDS011;64592;52.168;21.040;2023-04-24T18:34:24;6.05;;;4.15;;
75912;SDS011;64592;52.168;21.040;2023-04-24T18:39:27;6.70;;;4.53;;
75912;SDS011;64592;52.168;21.040;2023-04-24T18:44:28;6.47;;;4.40;;
75912;SDS011;64592;52.168;21.040;2023-04-24T18:49:32;8.10;;;4.88;;
75912;SDS011;64592;52.168;21.040;2023-04-24T18:54:33;7.10;;;5.05;;
75912;SDS011;64592;52.168;21.040;2023-04-24T18:59:35;6.35;;;4.65;;
75912;SDS011;64592;52.168;21.040;2023-04-24T19:04:38;6.55;;;4.93;;
75912;SDS011;64592;52.168;21.040;2023-04-24T19:09:40;11.07;;;5.45;;
75912;SDS011;64592;52.168;21.040;2023-04-24T19:14:41;19.85;;;7.38;;
75912;SDS011;64592;52.168;21.040;2023-04-24T19:19:45;11.88;;;5.35;;
75912;SDS011;64592;52.168;21.040;2023-04-24T19:24:46;11.75;;;6.28;;
75912;SDS011;64592;52.168;21.040;2023-04-24T19:29:48;8.50;;;4.85;;
75912;SDS011;64592;52.168;21.040;2023-04-24T19:34:52;7.85;;;5.05;;
75912;SDS011;64592;52.168;21.040;2023-04-24T19:39:54;7.28;;;5.10;;
75912;SDS011;64592;52.168;21.040;2023-04-24T19:44:55;10.68;;;5.40;;
75912;SDS011;64592;52.168;21.040;2023-04-24T19:49:58;8.55;;;5.45;;
75912;SDS011;64592;52.168;21.040;2023-04-24T19:55:00;8.60;;;5.60;;
75912;SDS011;64592;52.168;21.040;2023-04-24T20:00:02;10.05;;;5.65;;
75912;SDS011;64592;52.168;21.040;2023-04-24T20:05:07;9.75;;;5.45;;
75912;SDS011;64592;52.168;21.040;2023-04-24T20:10:09;8.23;;;6.00;;
75912;SDS011;64592;52.168;21.040;2023-04-24T20:15:10;10.80;;;5.78;;
75912;SDS011;64592;52.168;21.040;2023-04-24T20:20:14;10.98;;;6.13;;
75912;SDS011;64592;52.168;21.040;2023-04-24T20:25:15;11.55;;;6.35;;
75912;SDS011;64592;52.168;21.040;2023-04-24T20:30:17;8.90;;;6.65;;
75912;SDS011;64592;52.168;21.040;2023-04-24T20:35:20;8.98;;;5.72;;
75912;SDS011;64592;52.168;21.040;2023-04-24T20:40:22;11.48;;;6.93;;
75912;SDS011;64592;52.168;21.040;2023-04-24T20:45:23;8.75;;;6.65;;
75912;SDS011;64592;52.168;21.040;2023-04-24T20:50:26;13.35;;;6.75;;
75912;SDS011;64592;52.168;21.040;2023-04-24T20:55:29;13.48;;;7.78;;
75912;SDS011;64592;52.168;21.040;2023-04-24T21:00:31;13.02;;;8.57;;
75912;SDS011;64592;52.168;21.040;2023-04-24T21:05:34;12.68;;;7.57;;
75912;SDS011;64592;52.168;21.040;2023-04-24T21:10:36;14.32;;;7.20;;
75912;SDS011;64592;52.168;21.040;2023-04-24T21:15:37;12.63;;;8.05;;
75912;SDS011;64592;52.168;21.040;2023-04-24T21:20:40;12.57;;;8.63;;
75912;SDS011;64592;52.168;21.040;2023-04-24T21:25:42;12.57;;;6.75;;
75912;SDS011;64592;52.168;21.040;2023-04-24T21:30:45;12.02;;;7.70;;
75912;SDS011;64592;52.168;21.040;2023-04-24T21:35:48;10.45;;;7.25;;
75912;SDS011;64592;52.168;21.040;2023-04-24T21:40:49;9.70;;;7.65;;
75912;SDS011;64592;52.168;21.040;2023-04-24T21:45:52;9.65;;;7.75;;
75912;SDS011;64592;52.168;21.040;2023-04-24T21:50:55;9.43;;;6.82;;
75912;SDS011;64592;52.168;21.040;2023-04-24T21:55:56;14.35;;;7.70;;
75912;SDS011;64592;52.168;21.040;2023-04-24T22:00:58;11.40;;;7.55;;
75912;SDS011;64592;52.168;21.040;2023-04-24T22:06:01;9.88;;;7.28;;
75912;SDS011;64592;52.168;21.040;2023-04-24T22:11:03;9.60;;;8.00;;
75912;SDS011;64592;52.168;21.040;2023-04-24T22:16:05;12.98;;;7.65;;
75912;SDS011;64592;52.168;21.040;2023-04-24T22:21:08;12.27;;;7.15;;
75912;SDS011;64592;52.168;21.040;2023-04-24T22:26:09;9.80;;;7.57;;
75912;SDS011;64592;52.168;21.040;2023-04-24T22:31:11;12.13;;;7.30;;
75912;SDS011;64592;52.168;21.040;2023-04-24T22:36:14;11.68;;;8.05;;
75912;SDS011;64592;52.168;21.040;2023-04-24T22:41:16;11.57;;;8.23;;
75912;SDS011;64592;52.168;21.040;2023-04-24T22:46:17;14.65;;;8.50;;
75912;SDS011;64592;52.168;21.040;2023-04-24T22:51:20;10.50;;;7.45;;
75912;SDS011;64592;52.168;21.040;2023-04-24T22:56:22;12.35;;;8.70;;
75912;SDS011;64592;52.168;21.040;2023-04-24T23:01:24;13.40;;;8.43;;
75912;SDS011;64592;52.168;21.040;2023-04-24T23:06:27;11.07;;;8.27;;
75912;SDS011;64592;52.168;21.040;2023-04-24T23:11:29;13.18;;;9.15;;
75912;SDS011;64592;52.168;21.040;2023-04-24T23:16:31;14.48;;;9.35;;
75912;SDS011;64592;52.168;21.040;2023-04-24T23:21:37;14.60;;;8.93;;
75912;SDS011;64592;52.168;21.040;2023-04-24T23:26:39;13.88;;;9.52;;
75912;SDS011;64592;52.168;21.040;2023-04-24T23:31:41;13.82;;;9.63;;
75912;SDS011;64592;52.168;21.040;2023-04-24T23:36:44;16.27;;;9.85;;
75912;SDS011;64592;52.168;21.040;2023-04-24T23:41:46;17.27;;;9.43;;
75912;SDS011;64592;52.168;21.040;2023-04-24T23:46:48;14.45;;;9.20;;
75912;SDS011;64592;52.168;21.040;2023-04-24T23:51:51;16.50;;;9.93;;
75912;SDS011;64592;52.168;21.040;2023-04-24T23:56:53;13.23;;;9.52;;
